createdAt,value
2022-09-22T00:01:07.037Z,92.08
2022-09-22T00:03:44.007Z,92.53
2022-09-22T00:06:13.786Z,92.50
2022-09-22T00:08:43.723Z,92.72
2022-09-22T00:11:16.847Z,92.83
2022-09-22T00:13:56.925Z,92.89
2022-09-22T00:16:27.971Z,93.08
2022-09-22T00:18:55.075Z,93.34
2022-09-22T00:21:23.600Z,93.40
2022-09-22T00:23:51.385Z,93.61
2022-09-22T00:26:21.690Z,93.67
2022-09-22T00:28:51.216Z,93.92
2022-09-22T00:31:23.964Z,94.05
2022-09-22T00:33:53.918Z,94.10
2022-09-22T00:36:23.900Z,94.42
2022-09-22T00:38:51.631Z,94.44
2022-09-22T00:41:21.610Z,94.57
2022-09-22T00:43:51.326Z,94.73
2022-09-22T00:46:24.134Z,94.66
2022-09-22T00:49:10.287Z,94.85
2022-09-22T00:51:41.005Z,94.91
2022-09-22T00:54:12.559Z,95.02
2022-09-22T00:56:50.511Z,95.09
2022-09-22T00:59:21.158Z,95.13
2022-09-22T01:01:48.440Z,95.23
2022-09-22T01:04:17.195Z,95.50
2022-09-22T01:07:03.310Z,95.57
2022-09-22T01:09:33.106Z,96.04
2022-09-22T01:12:02.939Z,95.95
2022-09-22T01:14:43.237Z,96.21
2022-09-22T01:17:22.506Z,96.24
2022-09-22T01:20:27.785Z,96.17
2022-09-22T01:23:34.928Z,96.29
2022-09-22T01:26:29.373Z,96.24
2022-09-22T01:29:24.213Z,96.51
2022-09-22T01:32:02.934Z,96.63
2022-09-22T01:34:43.211Z,96.60
2022-09-22T01:37:20.803Z,96.85
2022-09-22T01:40:12.191Z,96.81
2022-09-22T01:42:54.653Z,97.17
2022-09-22T01:45:26.198Z,97.33
2022-09-22T01:47:57.635Z,97.30
2022-09-22T01:50:30.132Z,96.94
2022-09-22T01:53:03.579Z,96.86
2022-09-22T01:55:36.093Z,96.89
2022-09-22T01:58:18.017Z,97.11
2022-09-22T02:00:55.607Z,97.21
2022-09-22T02:03:31.723Z,97.32
2022-09-22T02:06:17.869Z,97.18
2022-09-22T02:08:50.930Z,96.81
2022-09-22T02:11:17.999Z,96.97
2022-09-22T02:13:46.312Z,96.72
2022-09-22T02:16:15.858Z,96.89
2022-09-22T02:19:11.951Z,96.79
2022-09-22T02:21:41.929Z,96.32
2022-09-22T02:24:25.858Z,96.28
2022-09-22T02:26:53.051Z,96.05
2022-09-22T02:29:20.220Z,96.29
2022-09-22T02:31:47.140Z,96.21
2022-09-22T02:34:14.083Z,96.48
2022-09-22T02:36:47.313Z,96.34
2022-09-22T02:39:29.235Z,96.40
2022-09-22T02:42:21.320Z,95.88
2022-09-22T02:44:48.085Z,95.93
2022-09-22T02:47:22.470Z,96.19
2022-09-22T02:49:50.789Z,95.74
2022-09-22T02:52:21.354Z,95.56
2022-09-22T02:54:48.226Z,95.70
2022-09-22T02:57:14.979Z,95.63
2022-09-22T02:59:42.097Z,95.53
2022-09-22T03:02:09.001Z,95.75
2022-09-22T03:04:36.091Z,95.69
2022-09-22T03:07:03.434Z,96.25
2022-09-22T03:09:30.317Z,96.38
2022-09-22T03:11:57.079Z,96.25
2022-09-22T03:14:24.097Z,95.79
2022-09-22T03:16:50.936Z,95.79
2022-09-22T03:19:17.713Z,95.66
2022-09-22T03:21:44.781Z,95.66
2022-09-22T03:24:11.565Z,95.81
2022-09-22T03:26:38.718Z,95.95
2022-09-22T03:29:06.299Z,96.18
2022-09-22T03:31:33.042Z,96.64
2022-09-22T03:33:59.880Z,96.37
2022-09-22T03:36:26.962Z,96.15
2022-09-22T03:38:53.729Z,96.28
2022-09-22T03:41:20.562Z,95.96
2022-09-22T03:43:47.524Z,96.25
2022-09-22T03:46:14.422Z,95.94
2022-09-22T03:48:44.948Z,96.14
2022-09-22T03:51:13.026Z,96.24
2022-09-22T03:53:40.022Z,96.12
2022-09-22T03:56:12.710Z,96.02
2022-09-22T03:58:41.014Z,96.10
2022-09-22T04:01:10.557Z,96.20
2022-09-22T04:03:37.918Z,96.46
2022-09-22T04:06:05.114Z,96.35
2022-09-22T04:08:32.083Z,95.96
2022-09-22T04:11:00.154Z,96.10
2022-09-22T04:13:27.756Z,95.80
2022-09-22T04:15:54.677Z,96.32
2022-09-22T04:18:22.097Z,96.23
2022-09-22T04:20:49.182Z,96.15
2022-09-22T04:23:17.336Z,96.15
2022-09-22T04:25:44.208Z,96.07
2022-09-22T04:28:11.237Z,95.84
2022-09-22T04:30:38.210Z,95.96
2022-09-22T04:33:05.437Z,96.31
2022-09-22T04:35:33.230Z,96.18
2022-09-22T04:38:00.761Z,96.26
2022-09-22T04:40:28.010Z,96.44
2022-09-22T04:42:55.374Z,96.10
2022-09-22T04:45:22.393Z,96.48
2022-09-22T04:47:51.553Z,96.08
2022-09-22T04:50:20.425Z,96.13
2022-09-22T04:52:49.960Z,95.96
2022-09-22T04:55:17.286Z,95.79
2022-09-22T04:57:49.324Z,95.85
2022-09-22T05:00:17.080Z,95.76
2022-09-22T05:02:44.012Z,95.42
2022-09-22T05:05:11.782Z,95.31
2022-09-22T05:07:46.375Z,95.15
2022-09-22T05:10:15.294Z,94.84
2022-09-22T05:12:42.932Z,95.01
2022-09-22T05:15:12.322Z,94.76
2022-09-22T05:17:46.572Z,94.79
2022-09-22T05:20:14.321Z,94.47
2022-09-22T05:22:42.582Z,93.72
2022-09-22T05:25:15.595Z,94.10
2022-09-22T05:27:45.484Z,93.68
2022-09-22T05:30:13.006Z,93.73
2022-09-22T05:32:45.806Z,94.05
2022-09-22T05:35:16.085Z,93.22
2022-09-22T05:37:44.359Z,93.20
2022-09-22T05:40:12.596Z,93.29
2022-09-22T05:42:47.367Z,92.42
2022-09-22T05:45:15.737Z,92.72
2022-09-22T05:47:43.058Z,93.01
2022-09-22T05:50:11.594Z,91.80
2022-09-22T05:52:39.120Z,90.91
2022-09-22T05:55:07.864Z,91.49
2022-09-22T05:57:34.825Z,91.55
2022-09-22T06:00:02.440Z,91.93
2022-09-22T06:02:40.113Z,91.60
2022-09-22T06:05:07.296Z,91.69
2022-09-22T06:07:34.261Z,91.57
2022-09-22T06:10:01.751Z,91.74
2022-09-22T06:12:28.704Z,91.64
2022-09-22T06:14:56.669Z,90.58
2022-09-22T06:17:23.819Z,90.63
2022-09-22T06:19:50.703Z,90.50
2022-09-22T06:22:18.308Z,89.98
2022-09-22T06:24:45.695Z,89.78
2022-09-22T06:27:12.676Z,89.46
2022-09-22T06:29:41.427Z,89.68
2022-09-22T06:32:09.537Z,89.68
2022-09-22T06:34:38.001Z,89.71
2022-09-22T06:37:08.463Z,89.74
2022-09-22T06:39:39.065Z,89.51
2022-09-22T06:42:06.314Z,88.94
2022-09-22T06:44:33.697Z,89.49
2022-09-22T06:47:05.535Z,89.76
2022-09-22T06:49:32.708Z,89.30
2022-09-22T06:51:59.919Z,88.64
2022-09-22T06:54:27.452Z,88.20
2022-09-22T06:56:55.701Z,88.22
2022-09-22T06:59:22.718Z,87.96
2022-09-22T07:01:49.603Z,87.76
2022-09-22T07:04:17.830Z,86.22
2022-09-22T07:06:45.741Z,85.56
2022-09-22T07:09:12.808Z,86.15
2022-09-22T07:11:40.457Z,86.43
2022-09-22T07:14:08.892Z,86.12
2022-09-22T07:16:36.676Z,86.50
2022-09-22T07:19:04.883Z,85.60
2022-09-22T07:21:36.502Z,84.87
2022-09-22T07:24:04.691Z,85.16
2022-09-22T07:26:36.471Z,84.71
2022-09-22T07:29:07.794Z,83.67
2022-09-22T07:31:36.597Z,83.68
2022-09-22T07:34:04.018Z,84.28
2022-09-22T07:36:34.285Z,84.22
2022-09-22T07:39:11.129Z,84.82
2022-09-22T07:41:44.160Z,84.32
2022-09-22T07:44:32.363Z,83.64
2022-09-22T07:47:00.686Z,83.24
2022-09-22T07:49:28.158Z,83.44
2022-09-22T07:51:57.558Z,82.69
2022-09-22T07:54:26.002Z,82.01
2022-09-22T07:56:58.562Z,82.34
2022-09-22T07:59:26.656Z,80.73
2022-09-22T08:01:53.755Z,80.36
2022-09-22T08:04:23.085Z,79.97
2022-09-22T08:06:53.103Z,79.92
2022-09-22T08:09:20.063Z,80.08
2022-09-22T08:11:48.848Z,80.45
2022-09-22T08:14:17.481Z,79.20
2022-09-22T08:16:46.131Z,79.75
2022-09-22T08:19:14.059Z,80.54
2022-09-22T08:21:49.526Z,79.43
2022-09-22T08:24:22.470Z,79.44
2022-09-22T08:26:52.769Z,79.85
2022-09-22T08:29:21.098Z,80.62
2022-09-22T08:31:49.318Z,79.03
2022-09-22T08:34:18.108Z,78.51
2022-09-22T08:36:48.488Z,79.11
2022-09-22T08:39:19.269Z,79.59
2022-09-22T08:41:58.386Z,80.31
2022-09-22T08:44:49.259Z,80.48
2022-09-22T08:47:39.907Z,79.32
2022-09-22T08:50:39.263Z,76.50
2022-09-22T08:53:12.077Z,76.35
2022-09-22T08:55:43.209Z,76.16
2022-09-22T08:58:43.508Z,75.95
2022-09-22T09:01:52.467Z,74.28
2022-09-22T09:04:45.040Z,73.63
2022-09-22T09:07:27.404Z,74.86
2022-09-22T09:10:25.283Z,73.52
2022-09-22T09:12:59.175Z,72.17
2022-09-22T09:15:46.104Z,71.32
2022-09-22T09:18:23.210Z,70.34
2022-09-22T09:20:52.183Z,70.25
2022-09-22T09:25:21.890Z,70.38
2022-09-22T09:26:17.169Z,70.53
2022-09-22T09:29:05.891Z,69.67
2022-09-22T09:31:46.373Z,66.99
2022-09-22T09:34:18.067Z,67.36
2022-09-22T09:36:47.081Z,68.46
2022-09-22T09:39:17.647Z,68.60
2022-09-22T09:41:48.669Z,69.08
2022-09-22T09:44:29.329Z,70.01
2022-09-22T09:47:08.078Z,68.03
2022-09-22T09:49:35.716Z,67.37
2022-09-22T09:52:06.922Z,67.92
2022-09-22T09:54:33.847Z,68.49
2022-09-22T09:57:15.339Z,66.39
2022-09-22T10:00:06.273Z,65.42
2022-09-22T10:02:50.058Z,64.10
2022-09-22T10:05:16.808Z,64.43
2022-09-22T10:07:53.382Z,64.55
2022-09-22T10:10:29.423Z,64.60
2022-09-22T10:13:05.641Z,63.80
2022-09-22T10:15:37.676Z,63.67
2022-09-22T10:18:40.599Z,63.00
2022-09-22T10:21:18.167Z,63.78
2022-09-22T10:23:54.206Z,63.67
2022-09-22T10:26:32.224Z,63.11
2022-09-22T10:29:19.991Z,61.72
2022-09-22T10:31:59.643Z,62.29
2022-09-22T10:34:38.449Z,62.20
2022-09-22T10:37:12.338Z,63.25
2022-09-22T10:39:51.332Z,65.29
2022-09-22T10:42:32.676Z,67.17
2022-09-22T10:45:07.294Z,61.75
2022-09-22T10:47:51.865Z,60.74
2022-09-22T10:50:50.730Z,60.89
2022-09-22T10:53:29.573Z,58.67
2022-09-22T10:56:21.090Z,58.50
2022-09-22T10:59:19.080Z,58.66
2022-09-22T11:02:15.912Z,58.83
2022-09-22T11:05:13.990Z,54.59
2022-09-22T11:08:21.879Z,55.02
2022-09-22T11:11:27.862Z,55.61
2022-09-22T11:14:13.485Z,56.79
2022-09-22T11:17:01.584Z,57.61
2022-09-22T11:19:34.619Z,56.53
2022-09-22T11:22:26.448Z,57.16
2022-09-22T11:25:21.341Z,58.26
2022-09-22T11:28:01.905Z,59.57
2022-09-22T11:30:38.449Z,58.97
2022-09-22T11:33:27.069Z,59.69
2022-09-22T11:36:07.109Z,58.55
2022-09-22T11:38:54.323Z,57.10
2022-09-22T11:41:41.241Z,57.58
2022-09-22T11:44:38.163Z,58.29
2022-09-22T11:47:20.153Z,57.90
2022-09-22T11:49:53.646Z,57.89
2022-09-22T11:52:33.995Z,58.13
2022-09-22T11:55:23.763Z,58.93
2022-09-22T11:57:57.272Z,59.12
2022-09-22T12:00:24.351Z,59.96
2022-09-22T12:03:01.975Z,59.83
2022-09-22T12:05:39.324Z,60.81
2022-09-22T12:08:11.951Z,59.91
2022-09-22T12:10:42.722Z,58.35
2022-09-22T12:13:15.706Z,58.85
2022-09-22T12:16:13.970Z,57.44
2022-09-22T12:18:59.062Z,57.01
2022-09-22T12:21:38.494Z,57.87
2022-09-22T12:24:10.535Z,58.38
2022-09-22T12:26:41.059Z,58.92
2022-09-22T12:29:17.800Z,59.67
2022-09-22T12:31:49.813Z,59.19
2022-09-22T12:34:26.906Z,59.60
2022-09-22T12:36:59.401Z,60.33
2022-09-22T12:39:31.981Z,60.76
2022-09-22T12:42:01.723Z,61.52
2022-09-22T12:44:32.896Z,59.91
2022-09-22T12:47:04.469Z,60.82
2022-09-22T12:49:31.956Z,61.07
2022-09-22T12:51:59.392Z,59.60
2022-09-22T12:54:28.750Z,59.20
2022-09-22T12:57:04.824Z,58.70
2022-09-22T12:59:37.705Z,59.61
2022-09-22T13:02:17.585Z,59.37
2022-09-22T13:04:56.496Z,60.00
2022-09-22T13:07:35.917Z,60.33
2022-09-22T13:10:21.632Z,60.19
2022-09-22T13:13:09.955Z,61.00
2022-09-22T13:15:45.931Z,61.33
2022-09-22T13:18:31.258Z,61.13
2022-09-22T13:21:02.950Z,61.01
2022-09-22T13:23:30.307Z,60.73
2022-09-22T13:26:12.076Z,60.39
2022-09-22T13:28:39.120Z,60.59
2022-09-22T13:31:15.565Z,60.59
2022-09-22T13:33:43.435Z,60.78
2022-09-22T13:36:17.581Z,60.36
2022-09-22T13:38:51.217Z,60.20
2022-09-22T13:41:24.052Z,60.26
2022-09-22T13:44:00.005Z,60.80
2022-09-22T13:46:41.064Z,59.45
2022-09-22T13:49:25.626Z,60.15
2022-09-22T13:52:08.595Z,60.19
2022-09-22T13:54:38.470Z,59.85
2022-09-22T13:57:16.464Z,60.72
2022-09-22T13:59:44.418Z,60.58
2022-09-22T14:02:13.291Z,60.68
2022-09-22T14:04:50.954Z,61.36
2022-09-22T14:07:20.477Z,61.41
2022-09-22T14:09:48.882Z,60.76
2022-09-22T14:12:16.335Z,61.10
2022-09-22T14:14:43.492Z,61.69
2022-09-22T14:17:18.240Z,60.38
2022-09-22T14:19:55.044Z,61.56
2022-09-22T14:22:31.104Z,61.89
2022-09-22T14:25:01.069Z,61.20
2022-09-22T14:27:38.434Z,61.22
2022-09-22T14:30:06.860Z,61.33
2022-09-22T14:32:50.335Z,60.90
2022-09-22T14:35:37.844Z,61.75
2022-09-22T14:38:17.086Z,61.64
2022-09-22T14:40:55.268Z,61.43
2022-09-22T14:43:33.297Z,60.57
2022-09-22T14:46:07.338Z,60.67
2022-09-22T14:48:38.562Z,60.38
2022-09-22T14:51:13.134Z,59.61
2022-09-22T14:53:51.642Z,59.36
2022-09-22T14:56:27.783Z,59.57
2022-09-22T14:58:58.075Z,60.31
2022-09-22T15:01:47.603Z,60.79
2022-09-22T15:04:23.086Z,61.37
2022-09-22T15:06:56.292Z,61.19
2022-09-22T15:09:34.587Z,62.01
2022-09-22T15:12:04.026Z,62.10
2022-09-22T15:14:37.504Z,62.07
2022-09-22T15:17:43.920Z,62.55
2022-09-22T15:20:11.211Z,63.13
2022-09-22T15:22:38.352Z,63.42
2022-09-22T15:25:05.676Z,63.64
2022-09-22T15:27:32.647Z,64.19
2022-09-22T15:29:59.798Z,64.01
2022-09-22T15:32:26.883Z,64.66
2022-09-22T15:34:55.035Z,65.22
2022-09-22T15:37:22.813Z,65.00
2022-09-22T15:39:49.984Z,64.66
2022-09-22T15:42:17.042Z,64.42
2022-09-22T15:44:44.160Z,64.49
2022-09-22T15:47:16.810Z,64.13
2022-09-22T15:49:45.189Z,64.30
2022-09-22T15:52:12.326Z,63.02
2022-09-22T15:54:39.170Z,59.84
2022-09-22T15:57:06.385Z,58.73
2022-09-22T15:59:33.905Z,57.95
2022-09-22T16:02:02.352Z,58.28
2022-09-22T16:04:33.743Z,58.58
2022-09-22T16:07:08.423Z,58.01
2022-09-22T16:09:36.037Z,58.10
2022-09-22T16:12:03.390Z,58.66
2022-09-22T16:14:30.283Z,58.75
2022-09-22T16:16:57.256Z,59.24
2022-09-22T16:19:24.459Z,59.54
2022-09-22T16:21:54.210Z,59.74
2022-09-22T16:24:22.703Z,60.11
2022-09-22T16:26:51.917Z,60.18
2022-09-22T16:29:19.023Z,60.70
2022-09-22T16:31:46.043Z,61.75
2022-09-22T16:34:13.341Z,61.88
2022-09-22T16:36:41.668Z,62.34
2022-09-22T16:39:09.031Z,62.36
2022-09-22T16:41:36.776Z,62.24
2022-09-22T16:44:05.424Z,62.97
2022-09-22T16:46:38.447Z,63.69
2022-09-22T16:49:12.217Z,64.29
2022-09-22T16:51:44.217Z,65.11
2022-09-22T16:54:13.826Z,65.65
2022-09-22T16:56:43.624Z,66.24
2022-09-22T16:59:15.239Z,66.58
2022-09-22T17:01:43.789Z,67.16
2022-09-22T17:04:13.573Z,67.64
2022-09-22T17:06:41.781Z,68.07
2022-09-22T17:09:10.508Z,68.38
2022-09-22T17:11:40.793Z,68.82
2022-09-22T17:14:12.573Z,69.05
2022-09-22T17:16:45.637Z,69.11
2022-09-22T17:19:18.537Z,69.54
2022-09-22T17:21:50.989Z,69.88
2022-09-22T17:24:19.424Z,70.04
2022-09-22T17:27:05.609Z,69.92
2022-09-22T17:29:33.201Z,70.34
2022-09-22T17:32:05.779Z,70.43
2022-09-22T17:34:33.733Z,70.16
2022-09-22T17:37:03.614Z,70.39
2022-09-22T17:39:31.944Z,70.90
2022-09-22T17:41:59.493Z,70.90
2022-09-22T17:44:28.895Z,71.04
2022-09-22T17:47:14.554Z,71.27
2022-09-22T17:50:00.582Z,71.40
2022-09-22T17:52:33.326Z,71.68
2022-09-22T17:55:22.057Z,71.93
2022-09-22T17:57:50.511Z,72.10
2022-09-22T18:00:21.202Z,71.73
2022-09-22T18:02:50.228Z,71.95
2022-09-22T18:05:21.045Z,72.06
2022-09-22T18:07:53.019Z,72.55
2022-09-22T18:10:20.946Z,72.85
2022-09-22T18:12:47.865Z,71.54
2022-09-22T18:15:17.193Z,71.54
2022-09-22T18:17:44.690Z,71.12
2022-09-22T18:20:18.318Z,71.40
2022-09-22T18:22:49.175Z,70.89
2022-09-22T18:25:19.393Z,70.08
2022-09-22T18:27:48.712Z,70.17
2022-09-22T18:30:18.047Z,69.67
2022-09-22T18:32:46.467Z,69.89
2022-09-22T18:35:14.364Z,69.86
2022-09-22T18:37:41.784Z,69.91
2022-09-22T18:40:09.664Z,70.02
2022-09-22T18:42:36.939Z,70.34
2022-09-22T18:45:04.956Z,70.69
2022-09-22T18:47:31.840Z,70.87
2022-09-22T18:49:59.525Z,70.59
2022-09-22T18:52:26.868Z,71.16
2022-09-22T18:54:54.218Z,71.57
2022-09-22T18:57:25.593Z,72.11
2022-09-22T18:59:54.081Z,72.28
2022-09-22T19:02:22.574Z,72.46
2022-09-22T19:04:53.900Z,72.51
2022-09-22T19:07:42.900Z,72.97
2022-09-22T19:10:13.412Z,73.05
2022-09-22T19:12:40.430Z,73.25
2022-09-22T19:15:13.086Z,73.63
2022-09-22T19:17:44.330Z,73.98
2022-09-22T19:20:17.352Z,74.44
2022-09-22T19:22:45.087Z,74.71
2022-09-22T19:25:12.377Z,75.06
2022-09-22T19:27:40.072Z,74.88
2022-09-22T19:30:09.478Z,75.13
2022-09-22T19:32:36.553Z,75.54
2022-09-22T19:35:04.213Z,76.37
2022-09-22T19:37:31.326Z,76.71
2022-09-22T19:39:58.608Z,76.98
2022-09-22T19:42:25.458Z,77.19
2022-09-22T19:44:52.561Z,77.70
2022-09-22T19:47:20.362Z,77.29
2022-09-22T19:49:47.453Z,77.44
2022-09-22T19:52:14.496Z,77.92
2022-09-22T19:54:41.342Z,77.67
2022-09-22T19:57:08.348Z,77.92
2022-09-22T19:59:35.640Z,77.98
2022-09-22T20:02:04.589Z,78.37
2022-09-22T20:04:34.626Z,78.86
2022-09-22T20:07:02.533Z,78.71
2022-09-22T20:09:29.740Z,79.19
2022-09-22T20:11:56.889Z,79.01
2022-09-22T20:14:25.388Z,78.92
2022-09-22T20:17:01.901Z,78.95
2022-09-22T20:19:35.181Z,78.87
2022-09-22T20:22:25.334Z,78.31
2022-09-22T20:24:55.737Z,78.40
2022-09-22T20:27:36.776Z,78.55
2022-09-22T20:30:04.420Z,79.20
2022-09-22T20:32:32.191Z,79.20
2022-09-22T20:34:59.451Z,78.90
2022-09-22T20:37:26.501Z,78.73
2022-09-22T20:39:53.612Z,78.85
2022-09-22T20:42:20.529Z,79.13
2022-09-22T20:44:49.120Z,79.16
2022-09-22T20:47:18.319Z,79.67
2022-09-22T20:49:50.678Z,79.10
2022-09-22T20:52:20.165Z,79.45
2022-09-22T20:54:47.862Z,79.64
2022-09-22T20:57:14.906Z,79.68
2022-09-22T20:59:45.100Z,79.56
2022-09-22T21:02:14.252Z,79.90
2022-09-22T21:04:41.568Z,80.28
2022-09-22T21:07:09.027Z,80.20
2022-09-22T21:09:54.353Z,80.12
2022-09-22T21:12:21.454Z,79.94
2022-09-22T21:14:48.820Z,79.69
2022-09-22T21:17:15.686Z,79.76
2022-09-22T21:19:43.335Z,80.19
2022-09-22T21:22:10.438Z,80.34
2022-09-22T21:24:37.280Z,80.20
2022-09-22T21:27:05.213Z,80.39
2022-09-22T21:29:32.276Z,80.37
2022-09-22T21:32:00.146Z,79.70
2022-09-22T21:34:27.760Z,79.73
2022-09-22T21:37:14.519Z,79.40
2022-09-22T21:39:41.632Z,79.65
2022-09-22T21:42:08.447Z,79.41
2022-09-22T21:44:35.479Z,79.85
2022-09-22T21:47:02.459Z,79.65
2022-09-22T21:49:29.258Z,79.56
2022-09-22T21:51:56.025Z,79.60
2022-09-22T21:54:23.197Z,79.73
2022-09-22T21:56:50.741Z,79.91
2022-09-22T21:59:18.051Z,79.84
2022-09-22T22:01:45.247Z,79.65
2022-09-22T22:04:15.149Z,80.12
2022-09-22T22:06:44.186Z,80.01
2022-09-22T22:09:18.325Z,79.76
2022-09-22T22:11:55.509Z,79.84
2022-09-22T22:14:25.558Z,79.96
2022-09-22T22:16:54.405Z,79.51
2022-09-22T22:19:24.861Z,79.82
2022-09-22T22:21:52.293Z,79.77
2022-09-22T22:24:24.682Z,79.95
2022-09-22T22:26:56.814Z,80.09
2022-09-22T22:29:26.159Z,80.15
2022-09-22T22:31:53.547Z,80.31
2022-09-22T22:34:23.172Z,80.27
2022-09-22T22:36:50.312Z,80.78
2022-09-22T22:39:17.127Z,80.80
2022-09-22T22:41:44.615Z,80.62
2022-09-22T22:44:17.817Z,80.99
2022-09-22T22:46:46.137Z,81.16
2022-09-22T22:49:13.576Z,81.47
2022-09-22T22:51:43.296Z,82.02
2022-09-22T22:54:11.974Z,81.87
2022-09-22T22:56:42.313Z,82.30
2022-09-22T22:59:10.018Z,82.44
2022-09-22T23:01:37.437Z,82.68
2022-09-22T23:04:06.642Z,82.94
2022-09-22T23:06:37.672Z,83.13
2022-09-22T23:09:06.670Z,83.56
2022-09-22T23:11:37.525Z,83.65
2022-09-22T23:14:06.938Z,83.63
2022-09-22T23:16:39.714Z,83.56
2022-09-22T23:19:08.754Z,83.86
2022-09-22T23:21:37.691Z,84.16
2022-09-22T23:24:05.429Z,84.54
2022-09-22T23:26:32.361Z,84.68
2022-09-22T23:28:59.756Z,85.06
2022-09-22T23:31:27.780Z,85.09
2022-09-22T23:33:54.678Z,85.64
2022-09-22T23:36:26.789Z,85.78
2022-09-22T23:38:55.877Z,85.96
2022-09-22T23:41:23.372Z,85.96
2022-09-22T23:43:50.345Z,85.85
2022-09-22T23:46:17.589Z,86.41
2022-09-22T23:48:44.907Z,86.29
2022-09-22T23:51:11.811Z,86.72
2022-09-22T23:53:38.932Z,86.65
2022-09-22T23:56:07.530Z,86.71
2022-09-22T23:58:34.790Z,86.67
